Weather

DAILY 7 DAY TOTAL
onrain

Note: Some stations are located near irrigated fields and may also report irrigation

Alliston Mount Forest Blyth Guelph Grand Bend Strathroy Woodstock Belmont Simcoe Leamington Chatham West Lorne






Grand Bend - Historical Weather Data
Date Max Temp (°C) Min Temp (°C) Avg Temp (°C) Rain (mm) 7Day Rain(mm) Total Rain(mm) Avg RH (%)
10/14/2019 11.9 3.4 8.0 0.0 9.8 344.6 65.5
10/13/2019 17.1 3.7 10.3 0.0 9.8 344.6 64.1
10/12/2019 16.1 2.7 7.9 8.6 10.4 344.6 78.5
10/11/2019 23.7 7.8 15.9 1.2 1.8 336.0 70.8
10/10/2019 20.7 1.9 11.6 0.0 2.0 334.8 79.0
10/9/2019 20.1 2.6 11.0 0.0 6.0 334.8 79.3
10/8/2019 20.4 1.1 10.6 0.0 29.2 334.8 83.0
10/7/2019 19.1 5.3 12.5 0.0 40.4 334.8 80.5
10/6/2019 20.5 7.7 14.7 0.6 40.6 334.8 84.0
10/5/2019 16.6 -0.3 8.1 0.0 40.8 334.2 83.6
10/4/2019 13.7 2.7 9.6 1.4 48.0 334.2 85.3
10/3/2019 14.9 8.8 11.6 4.0 47.0 332.8 96.6
10/2/2019 18.3 11.5 15.1 23.2 43.2 328.8 95.8
10/1/2019 29.1 16.8 20.7 11.2 20.0 305.6 92.8
9/30/2019 25.1 10.9 17.2 0.2 8.8 294.4 85.2
9/29/2019 18.6 6.4 11.8 0.8 10.8 294.2 89.9
9/28/2019 18.2 11.7 16.4 7.2 10.4 293.4 95.1
9/27/2019 23.6 3.8 14.6 0.4 3.2 286.2 78.1
9/26/2019 20.0 6.3 15.9 0.2 2.8 285.8 75.9
9/25/2019 24.5 12.0 19.0 0.0 2.6 285.6 74.6
9/24/2019 21.7 11.4 16.7 0.0 2.6 285.6 79.8
9/23/2019 22.9 16.3 19.6 2.2 2.6 285.6 83.5
9/22/2019 30.4 19.6 24.1 0.4 0.4 283.4 72.4
9/21/2019 31.0 14.6 22.1 0.0 0.0 283.0 82.3
9/20/2019 28.6 10.4 18.7 0.0 0.0 283.0 86.8
9/19/2019 25.5 11.9 17.8 0.0 3.8 283.0 79.0
9/18/2019 24.8 8.1 16.4 0.0 11.8 283.0 76.6
9/17/2019 24.7 11.3 17.6 0.0 26.0 283.0 82.6
9/16/2019 24.8 14.7 18.4 0.0 27.0 283.0 93.2
9/15/2019 23.3 9.2 16.4 0.0 27.0 283.0 91.2
9/14/2019 22.2 11.1 17.1 0.0 27.0 283.0 79.3
9/13/2019 25.7 11.8 18.6 3.8 27.0 283.0 89.4
9/12/2019 20.8 12.1 17.3 8.0 24.4 279.2 94.6
9/11/2019 27.6 17.3 20.9 14.2 16.4 271.2 94.6
9/10/2019 26.4 10.9 19.4 1.0 2.2 257.0 85.1
9/9/2019 22.4 6.0 13.6 0.0 1.2 256.0 84.8
9/8/2019 19.0 7.7 13.1 0.0 1.2 256.0 86.1
9/7/2019 22.6 11.8 16.9 0.0 1.6 256.0 84.8
9/6/2019 20.4 6.6 13.7 1.2 1.6 256.0 90.9
9/5/2019 21.7 3.8 12.8 0.0 0.4 254.8 82.0
9/4/2019 22.1 7.7 16.9 0.0 0.4 254.8 79.3
9/3/2019 25.5 8.7 18.3 0.0 0.6 254.8 86.4
9/2/2019 24.2 12.7 18.3 0.0 18.0 254.8 87.2
9/1/2019 20.1 11.9 15.3 0.4 19.8 254.8 92.3
8/31/2019 21.1 7.3 15.3 0.0 19.4 254.4 77.8
8/30/2019 21.7 10.4 18.5 0.0 19.4 254.4 72.3
8/29/2019 24.9 12.9 20.0 0.0 19.4 254.4 68.5
8/28/2019 24.4 12.8 18.8 0.2 19.4 254.4 77.2
8/27/2019 27.3 16.9 21.2 17.4 19.6 254.2 93.1
8/26/2019 25.3 11.6 18.6 1.8 2.2 236.8 80.0
8/25/2019 27.3 7.8 16.9 0.0 0.4 235.0 79.3
8/24/2019 24.7 6.3 15.4 0.0 29.8 235.0 80.0
8/23/2019 22.1 8.4 15.6 0.0 35.2 235.0 78.0
8/22/2019 20.9 10.8 18.4 0.0 35.2 235.0 68.2
8/21/2019 28.7 16.7 22.3 0.4 35.6 235.0 89.6
8/20/2019 30.0 16.3 22.9 0.0 35.2 234.6 87.1
8/19/2019 27.2 16.9 21.6 0.0 35.2 234.6 86.2
8/18/2019 30.1 18.7 22.5 29.4 35.2 234.6 91.3
8/17/2019 28.6 16.0 22.4 5.4 5.8 205.2 81.9
8/16/2019 27.2 13.1 20.0 0.0 0.4 199.8 79.6
8/15/2019 25.1 11.4 18.2 0.4 0.4 199.8 79.9
8/14/2019 28.1 14.7 20.8 0.0 4.8 199.4 64.3
8/13/2019 27.2 16.2 21.9 0.0 4.8 199.4 73.2
8/12/2019 30.4 17.8 23.4 0.0 6.0 199.4 75.9
8/11/2019 29.3 10.2 20.3 0.0 6.0 199.4 75.2
8/10/2019 23.6 14.3 19.4 0.0 6.0 199.4 70.3
8/9/2019 25.3 12.8 19.4 0.0 6.0 199.4 78.4
8/8/2019 25.5 14.3 20.7 4.8 6.0 199.4 85.1
8/7/2019 27.9 13.9 20.5 0.0 1.2 194.6 80.5
8/6/2019 25.8 17.3 21.6 1.2 1.2 194.6 89.9
8/5/2019 29.5 13.5 22.1 0.0 0.0 193.4 82.3
8/4/2019 28.1 14.9 21.3 0.0 3.4 193.4 80.9
8/3/2019 29.1 8.2 19.4 0.0 14.2 193.4 76.7
8/2/2019 25.9 9.8 18.2 0.0 14.2 193.4 76.7
8/1/2019 24.5 7.9 17.7 0.0 14.2 193.4 77.8
7/31/2019 22.3 14.0 18.2 0.0 14.2 193.4 83.0
7/30/2019 26.6 17.0 21.8 0.0 14.2 193.4 88.0
7/29/2019 31.2 19.5 23.8 3.4 14.2 193.4 83.9
7/28/2019 30.9 19.3 24.9 10.8 10.8 190.0 79.3
7/27/2019 30.9 14.4 23.8 0.0 0.2 179.2 70.7
7/26/2019 30.4 13.7 22.4 0.0 6.0 179.2 73.1
7/25/2019 29.1 11.7 20.3 0.0 6.0 179.2 77.5
7/24/2019 24.4 11.9 18.6 0.0 6.0 179.2 79.4
7/23/2019 23.3 11.7 18.3 0.0 7.4 179.2 76.2
7/22/2019 22.8 13.4 19.0 0.0 8.2 179.2 81.8
7/21/2019 25.8 17.3 21.5 0.2 8.2 179.2 84.4
7/20/2019 34.4 20.0 26.7 5.8 8.0 179.0 78.9
7/19/2019 32.9 23.2 27.4 0.0 8.8 173.2 81.2
7/18/2019 32.7 14.3 23.9 0.0 8.8 173.2 80.6
7/17/2019 27.3 16.9 22.5 1.4 8.8 173.2 92.4
7/16/2019 27.8 19.8 23.6 0.8 7.4 171.8 86.3
7/15/2019 31.9 8.6 20.7 0.0 6.6 171.0 72.0
7/14/2019 24.2 11.3 18.3 0.0 6.6 171.0 81.3
7/13/2019 32.2 12.9 21.6 6.6 6.6 171.0 79.5
7/12/2019 24.8 13.5 19.2 0.0 0.0 164.4 81.2
7/11/2019 26.4 13.9 21.5 0.0 0.2 164.4 81.6
7/10/2019 33.9 10.4 22.6 0.0 0.6 164.4 72.8
7/9/2019 25.0 8.4 17.3 0.0 0.6 164.4 76.6
7/8/2019 24.4 10.8 17.2 0.0 4.0 164.4 80.2
7/7/2019 27.4 14.5 21.1 0.0 4.0 164.4 71.5
7/6/2019 25.6 21.1 22.8 0.0 4.0 164.4 86.5
7/5/2019 35.1 18.6 26.1 0.2 4.6 164.4 81.8
7/4/2019 34.1 13.2 23.4 0.4 6.6 164.2 80.3
7/3/2019 26.7 16.4 21.3 0.0 6.2 163.8 83.5
7/2/2019 26.3 19.0 21.9 3.4 6.2 163.8 92.3
7/1/2019 32.8 8.4 21.4 0.0 2.8 160.4 72.1
6/30/2019 22.1 12.1 17.7 0.0 2.8 160.4 80.3
6/29/2019 25.7 16.3 21.5 0.6 2.8 160.4 87.0
6/28/2019 30.9 13.8 21.9 2.2 2.2 159.8 82.0
6/27/2019 32.1 13.3 21.7 0.0 0.0 157.6 72.2
6/26/2019 28.9 17.2 23.2 0.0 10.6 157.6 67.9
6/25/2019 28.0 16.8 21.8 0.0 10.6 157.6 70.8
6/24/2019 28.1 16.9 22.0 0.0 10.6 157.6 68.5
6/23/2019 27.1 7.0 18.0 0.0 10.6 157.6 68.9
6/22/2019 20.9 7.1 14.6 0.0 10.6 157.6 82.2
6/21/2019 18.3 9.4 14.0 0.0 10.6 157.6 85.2
6/20/2019 23.6 12.9 16.9 10.6 10.6 157.6 94.5
6/19/2019 27.3 11.1 18.7 0.0 18.8 147.0 81.4
6/18/2019 24.0 11.6 17.8 0.0 18.8 147.0 73.4
6/17/2019 21.1 10.8 15.5 0.0 18.8 147.0 83.1
6/16/2019 19.7 11.2 15.3 0.0 35.0 147.0 86.2
6/15/2019 23.1 12.8 17.0 0.0 35.0 147.0 79.4
6/14/2019 22.1 10.1 16.2 0.0 35.0 147.0 68.5
6/13/2019 17.3 9.6 13.1 18.8 35.0 147.0 95.9
6/12/2019 24.8 10.6 18.6 0.0 16.2 128.2 53.4
6/11/2019 22.9 9.7 16.3 0.0 23.2 128.2 66.5
6/10/2019 22.6 11.4 17.0 16.2 23.2 128.2 87.0
6/9/2019 26.8 13.3 21.2 0.0 7.0 112.0 58.8
6/8/2019 29.0 8.3 19.9 0.0 7.6 112.0 56.0
6/7/2019 21.6 7.2 15.4 0.0 19.4 112.0 74.7
6/6/2019 17.6 8.1 12.2 0.0 19.4 112.0 91.9
6/5/2019 23.6 9.2 17.2 7.0 19.4 112.0 91.3
6/4/2019 26.0 7.7 16.8 0.0 14.6 105.0 67.5
6/3/2019 16.8 6.3 10.9 0.0 20.0 105.0 66.3
6/2/2019 15.9 7.1 11.2 0.6 20.0 105.0 79.5
6/1/2019 19.7 10.3 14.3 11.8 19.4 104.4 88.7
5/31/2019 25.7 6.3 16.5 0.0 41.4 92.6 65.8
5/30/2019 21.7 11.2 16.4 0.0 41.4 92.6 88.8
5/29/2019 16.4 8.9 12.3 2.2 45.8 92.6 95.5
5/28/2019 18.0 9.2 13.8 5.4 44.4 90.4 94.8
5/27/2019 19.3 5.1 12.8 0.0 39.0 85.0 81.4
5/26/2019 19.1 6.9 14.3 0.0 39.0 85.0 81.2
5/25/2019 28.3 10.5 18.4 33.8 47.2 85.0 86.5
5/24/2019 14.9 6.2 10.7 0.0 13.4 51.2 88.5
5/23/2019 24.9 10.1 17.7 4.4 13.4 51.2 78.6
5/22/2019 19.0 4.0 12.5 0.8 9.0 46.8 73.3
5/21/2019 12.2 1.1 7.6 0.0 9.2 46.0 84.1
5/20/2019 15.5 4.6 10.9 0.0 9.2 46.0 86.9
5/19/2019 28.7 10.5 18.1 8.2 17.4 46.0 79.1
5/18/2019 19.5 4.0 11.9 0.0 9.8 37.8 75.7
5/17/2019 17.2 5.5 9.5 0.0 10.0 37.8 82.2
5/16/2019 22.7 2.7 14.4 0.0 10.8 37.8 68.0
5/15/2019 20.9 7.4 13.2 1.0 19.2 37.8 64.7
5/14/2019 16.7 5.0 10.2 0.0 18.2 36.8 69.7
5/13/2019 8.4 4.6 6.1 8.2 20.0 36.8 95.9
5/12/2019 11.1 6.2 8.2 0.6 11.8 28.6 81.9
5/11/2019 9.7 -0.5 5.3 0.2 11.2 28.0 85.7
5/10/2019 17.1 3.6 9.6 0.8 11.0 27.8 87.3
5/9/2019 22.0 8.9 15.6 8.4 12.8 27.0 71.5
5/8/2019 16.2 0.2 8.6 0.0 4.4 18.6 59.3
5/7/2019 6.8 3.0 5.0 1.8 18.6 18.6 87.1
5/6/2019 19.5 5.3 11.1 0.0 22.0 16.8 79.7
5/5/2019 19.6 0.0 10.3 0.0 26.6 16.8 74.3
5/4/2019 11.6 3.8 6.9 0.0 26.6 16.8 89.8
5/3/2019 6.3 3.9 4.8 2.6 26.6 16.8 99.5
5/2/2019 10.9 2.4 5.9 0.0 60.4 14.2 93.8
5/1/2019 18.8 5.3 10.3 14.2 62.0 14.2 91.1